Pendroy, Montana
Current Conditions -  °F | °C
As of 10:56 AM on Tuesday 21 Oct 2014 (Local Time) from KCTB Reporting Station
Light Rain Light Rain  
Wind Chill: 41°   Ceiling: 6000
Heat Index: 49°   Visibility: 10mi
Dew Point: 47°   Wind: 24mph
Humidity: 93%   Direction: 270°W
Pressure: 29.74"   Gusts: 33mph
Location:  48.07°N, 112.3°W
Report Text: KCTB 211656Z AUTO 27021G29KT 10SM -RA OVC060 09/08 A2974 RMK AO2 PK WND 25030/1629 RAB08 SLP067 P0005 T00940083
Loading
Personal Weather Stations






























Interactive Weather Map
Tropical Storm Tracking
New forecast layout! Learn more

10-Day Weather Forecast

Advertisements
Track Severe Weather on mobile